KCAO/CAO METAR and TAF weather

Enter ICAO airport designator
Station Type Date Time Source
KCAO METAR 2020/02/26 08:55 UTC NOAA

KCAO 260855Z AUTO 32009KT 10SM CLR M10/M13 A3042 RMK AO2 SLP343 T11001128 50002


Station Type Date Time Source
KCAO Decoded METAR 2020/02/26 08:55 UTC NOAA

CLAYTON MUNICIPAL AIRPARK, NM, United States (KCAO) 36-27N 103-09W 1514M
Feb 26, 2020 - 03:55 AM EST / 2020.02.26 0855 UTC
Wind: from the NW (320 degrees) at 10 MPH (9 KT):0
Visibility: 10 mile(s):0
Sky conditions: clear
Temperature: 14.0 F (-10.0 C)
Windchill: 1 F (-17 C):1
Dew Point: 9.0 F (-12.8 C)
Relative Humidity: 79%
Pressure (altimeter): 30.42 in. Hg (1030 hPa)
Pressure tendency: 0.01 inches (0.2 hPa) higher than three hours ago
ob: KCAO 260855Z AUTO 32009KT 10SM CLR M10/M13 A3042 RMK AO2 SLP343 T11001128 50002
cycle: 9

Station Type Date Time Source
KCAO TAF UTC NOAA

Error!

Example: see airport list